Time;durP1;ratioP1;P1;durP2;ratioP2;P2;SDS_P1;SDS_P2;PMS_P1;PMS_P2;Temp;Humidity;BMP_temperature;BMP_pressure;BME280_temperature;BME280_humidity;BME280_pressure;Samples;Min_cycle;Max_cycle;Signal;HPM_P1;HPM_P2
2022/09/22 00:01:12;;;;;;;0.20;0.20;;;4.80;99.90;;;;;;5081854;28;20095;-77
2022/09/22 00:03:42;;;;;;;0.00;0.00;;;4.80;99.90;;;;;;5079977;28;20131;-77
2022/09/22 00:06:33;;;;;;;0.00;0.00;;;4.80;99.90;;;;;;5097920;28;20058;-77
2022/09/22 00:09:00;;;;;;;0.00;0.00;;;4.80;99.90;;;;;;5080368;28;20056;-77
2022/09/22 00:11:35;;;;;;;0.00;0.00;;;4.80;99.90;;;;;;5096488;28;20056;-77
2022/09/22 00:14:10;;;;;;;0.10;0.10;;;4.70;99.90;;;;;;5097693;28;20044;-77
2022/09/22 00:16:55;;;;;;;0.33;0.20;;;4.70;99.90;;;;;;5097242;28;20071;-77
2022/09/22 00:19:30;;;;;;;0.00;0.00;;;4.70;99.90;;;;;;5096377;28;20051;-77
2022/09/22 00:21:55;;;;;;;0.00;0.00;;;4.60;99.90;;;;;;5118759;28;20110;-77
2022/09/22 00:24:22;;;;;;;0.00;0.00;;;4.60;99.90;;;;;;5116854;28;20051;-77
2022/09/22 00:26:49;;;;;;;0.00;0.00;;;4.60;99.90;;;;;;5117661;28;20039;-77
2022/09/22 00:29:16;;;;;;;0.00;0.00;;;4.60;99.90;;;;;;5101170;28;20127;-77
2022/09/22 00:31:43;;;;;;;0.30;0.30;;;4.60;99.90;;;;;;5097140;28;20055;-77
2022/09/22 00:34:14;;;;;;;0.13;0.13;;;4.60;99.90;;;;;;5079058;28;20048;-77
2022/09/22 00:36:40;;;;;;;0.05;0.05;;;4.60;99.90;;;;;;5092245;28;20215;-77
2022/09/22 00:39:06;;;;;;;0.00;0.00;;;4.60;99.90;;;;;;5119951;28;20094;-77
2022/09/22 00:41:35;;;;;;;0.00;0.00;;;4.60;99.90;;;;;;5122055;28;20059;-77
2022/09/22 00:44:25;;;;;;;0.00;0.00;;;4.60;99.90;;;;;;5121077;28;20076;-78
2022/09/22 00:46:51;;;;;;;0.00;0.00;;;4.50;99.90;;;;;;5103110;28;20067;-77
2022/09/22 00:49:24;;;;;;;0.00;0.00;;;4.60;99.90;;;;;;5103194;28;20044;-77
2022/09/22 00:51:50;;;;;;;0.00;0.00;;;4.60;99.90;;;;;;5079527;28;20058;-77
2022/09/22 00:54:18;;;;;;;0.00;0.00;;;4.60;99.90;;;;;;5100297;28;20052;-77
2022/09/22 00:56:52;;;;;;;0.10;0.10;;;4.60;99.90;;;;;;5100860;28;20146;-77
2022/09/22 00:59:20;;;;;;;0.00;0.00;;;5.10;99.90;;;;;;5103538;28;20095;-77
2022/09/22 01:01:47;;;;;;;0.00;0.00;;;4.60;99.90;;;;;;5066956;28;20052;-77
2022/09/22 01:04:16;;;;;;;0.00;0.00;;;4.60;99.90;;;;;;5093253;28;20059;-77
2022/09/22 01:06:43;;;;;;;0.00;0.00;;;4.60;99.90;;;;;;5106088;28;20073;-77
2022/09/22 01:09:09;;;;;;;1.38;0.88;;;4.50;99.90;;;;;;5116612;28;20028;-77
2022/09/22 01:11:37;;;;;;;1.85;0.25;;;4.50;99.90;;;;;;5104299;28;20042;-77
2022/09/22 01:14:06;;;;;;;0.00;0.00;;;4.50;99.90;;;;;;5086682;28;20048;-77
2022/09/22 01:17:04;;;;;;;0.00;0.00;;;4.50;99.90;;;;;;5104147;28;20055;-77
2022/09/22 01:20:01;;;;;;;0.00;0.00;;;4.50;99.90;;;;;;5103261;28;20123;-78
2022/09/22 01:23:10;;;;;;;0.00;0.00;;;4.40;99.90;;;;;;5103743;28;20044;-77
2022/09/22 01:26:07;;;;;;;0.00;0.00;;;4.40;99.90;;;;;;5103779;28;20113;-77
2022/09/22 01:29:00;;;;;;;0.00;0.00;;;4.40;99.90;;;;;;5095697;28;20044;-77
2022/09/22 01:31:49;;;;;;;0.15;0.15;;;4.30;99.90;;;;;;5106846;28;20409;-76
2022/09/22 01:34:32;;;;;;;0.00;0.00;;;4.40;99.90;;;;;;5105301;28;20074;-77
2022/09/22 01:37:10;;;;;;;0.08;0.08;;;4.30;99.90;;;;;;5104736;28;20048;-77
2022/09/22 01:39:47;;;;;;;0.00;0.00;;;4.30;99.90;;;;;;5091238;28;20100;-77
2022/09/22 01:42:43;;;;;;;0.00;0.00;;;4.30;99.90;;;;;;5096059;28;20059;-77
2022/09/22 01:45:22;;;;;;;0.00;0.00;;;4.30;99.90;;;;;;5107142;28;20138;-77
2022/09/22 01:47:57;;;;;;;0.00;0.00;;;4.30;99.90;;;;;;5107237;28;20056;-77
2022/09/22 01:50:42;;;;;;;0.00;0.00;;;4.20;99.90;;;;;;5085504;28;20044;-77
2022/09/22 01:53:14;;;;;;;0.00;0.00;;;4.20;99.90;;;;;;5066893;28;20040;-77
2022/09/22 01:58:19;;;;;;;0.00;0.00;;;4.20;99.90;;;;;;5181672;22;20067;-77
2022/09/22 02:01:01;;;;;;;0.00;0.00;;;4.20;99.90;;;;;;5086360;28;20048;-78
2022/09/22 02:03:39;;;;;;;0.00;0.00;;;4.20;99.90;;;;;;5067826;28;20067;-77
2022/09/22 02:06:11;;;;;;;0.00;0.00;;;4.20;99.90;;;;;;5078963;28;20048;-77
2022/09/22 02:08:50;;;;;;;0.20;0.20;;;4.10;99.90;;;;;;5087755;28;20495;-77
2022/09/22 02:11:15;;;;;;;0.00;0.00;;;4.10;99.90;;;;;;5079854;28;20065;-77
2022/09/22 02:13:42;;;;;;;1.17;0.82;;;4.10;99.90;;;;;;5071686;28;20032;-78
2022/09/22 02:16:10;;;;;;;0.00;0.00;;;4.10;99.90;;;;;;5087901;28;20036;-77
2022/09/22 02:18:40;;;;;;;0.25;0.10;;;4.00;99.90;;;;;;5087959;28;20045;-77
2022/09/22 02:21:06;;;;;;;0.17;0.13;;;4.00;99.90;;;;;;5087807;28;20051;-76
2022/09/22 02:23:32;;;;;;;0.00;0.00;;;4.00;99.90;;;;;;5070017;28;20040;-76
2022/09/22 02:26:00;;;;;;;0.00;0.00;;;3.90;99.90;;;;;;5087475;28;20048;-78
2022/09/22 02:28:28;;;;;;;0.00;0.00;;;3.90;99.90;;;;;;5068927;28;20071;-77
2022/09/22 02:30:57;;;;;;;0.00;0.00;;;3.90;99.90;;;;;;5086785;28;20033;-78
2022/09/22 02:33:25;;;;;;;0.00;0.00;;;3.90;99.90;;;;;;5087307;28;20063;-77
2022/09/22 02:36:01;;;;;;;0.10;0.10;;;3.90;99.90;;;;;;5087696;28;20036;-77
2022/09/22 02:38:47;;;;;;;0.00;0.00;;;3.80;99.90;;;;;;5086862;28;20059;-76
2022/09/22 02:41:22;;;;;;;0.00;0.00;;;3.80;99.90;;;;;;5087896;28;20040;-77
2022/09/22 02:44:04;;;;;;;0.00;0.00;;;3.80;99.90;;;;;;5087365;28;20048;-77
2022/09/22 02:46:42;;;;;;;0.00;0.00;;;3.80;99.90;;;;;;5086967;28;20104;-78
2022/09/22 02:49:14;;;;;;;0.00;0.00;;;3.80;99.90;;;;;;5069010;28;20067;-77
2022/09/22 02:51:40;;;;;;;0.00;0.00;;;3.70;99.90;;;;;;5086976;28;20166;-78
2022/09/22 02:54:06;;;;;;;0.13;0.10;;;3.70;99.90;;;;;;5087450;28;20039;-76
2022/09/22 02:56:32;;;;;;;0.00;0.00;;;3.60;99.90;;;;;;5086665;28;20060;-77
2022/09/22 02:58:57;;;;;;;0.00;0.00;;;3.60;99.90;;;;;;5087066;28;20041;-77
2022/09/22 03:01:23;;;;;;;0.03;0.03;;;3.60;99.90;;;;;;5086292;28;20047;-77
2022/09/22 03:03:49;;;;;;;0.00;0.00;;;3.40;99.90;;;;;;5086401;28;20132;-77
2022/09/22 03:06:15;;;;;;;0.00;0.00;;;3.40;99.90;;;;;;5065695;28;20032;-78
2022/09/22 03:08:40;;;;;;;0.00;0.00;;;3.40;99.90;;;;;;5085862;28;20185;-75
2022/09/22 03:11:06;;;;;;;0.00;0.00;;;3.40;99.90;;;;;;5086654;28;20037;-77
2022/09/22 03:13:31;;;;;;;0.00;0.00;;;3.30;99.90;;;;;;5086648;28;20037;-78
2022/09/22 03:15:57;;;;;;;0.00;0.00;;;3.40;99.90;;;;;;5086799;28;20051;-77
2022/09/22 03:18:23;;;;;;;0.00;0.00;;;3.20;99.90;;;;;;5085793;28;20051;-76
2022/09/22 03:20:48;;;;;;;0.00;0.00;;;3.10;99.90;;;;;;5085887;28;20040;-78
2022/09/22 03:23:14;;;;;;;0.30;0.30;;;3.40;99.90;;;;;;5069065;28;20048;-78
2022/09/22 03:25:39;;;;;;;0.00;0.00;;;3.00;99.90;;;;;;5069344;28;20051;-78
2022/09/22 03:28:05;;;;;;;0.00;0.00;;;3.00;99.90;;;;;;5086582;28;20044;-78
2022/09/22 03:30:31;;;;;;;0.00;0.00;;;3.00;99.90;;;;;;5086713;28;20032;-77
2022/09/22 03:32:57;;;;;;;0.00;0.00;;;3.00;99.90;;;;;;5086808;28;20052;-79
2022/09/22 03:35:23;;;;;;;0.00;0.00;;;3.00;99.90;;;;;;5086354;28;20103;-77
2022/09/22 03:37:49;;;;;;;0.00;0.00;;;3.00;99.90;;;;;;5087076;28;20044;-78
2022/09/22 03:40:14;;;;;;;0.00;0.00;;;2.90;99.90;;;;;;5087093;28;20053;-78
2022/09/22 03:42:40;;;;;;;0.00;0.00;;;2.90;99.90;;;;;;5086779;28;20032;-78
2022/09/22 03:45:08;;;;;;;0.00;0.00;;;2.90;99.90;;;;;;5087106;28;20043;-79
2022/09/22 03:47:33;;;;;;;0.00;0.00;;;3.00;99.90;;;;;;5085267;28;20039;-76
2022/09/22 03:49:59;;;;;;;0.00;0.00;;;3.00;99.90;;;;;;5084420;28;20049;-77
2022/09/22 03:52:25;;;;;;;0.45;0.32;;;2.90;99.90;;;;;;5083718;28;20419;-77
2022/09/22 03:54:51;;;;;;;0.00;0.00;;;2.90;99.90;;;;;;5084005;28;20043;-78
2022/09/22 03:57:17;;;;;;;0.00;0.00;;;2.90;99.90;;;;;;5083691;28;20374;-76
2022/09/22 03:59:42;;;;;;;0.00;0.00;;;2.90;99.90;;;;;;5084117;28;20046;-78
2022/09/22 04:02:08;;;;;;;0.00;0.00;;;2.90;99.90;;;;;;5083896;28;20041;-79
2022/09/22 04:04:33;;;;;;;0.00;0.00;;;2.90;99.90;;;;;;5084078;28;20045;-76
2022/09/22 04:06:59;;;;;;;0.00;0.00;;;3.00;99.90;;;;;;5083873;28;20064;-77
2022/09/22 04:09:25;;;;;;;0.00;0.00;;;2.90;99.90;;;;;;5083370;28;20048;-78
2022/09/22 04:11:50;;;;;;;0.00;0.00;;;2.90;99.90;;;;;;5083577;28;20032;-78
2022/09/22 04:14:16;;;;;;;0.03;0.03;;;2.90;99.90;;;;;;5083188;28;20032;-77
2022/09/22 04:16:41;;;;;;;0.00;0.00;;;2.90;99.90;;;;;;5083033;28;20058;-77
2022/09/22 04:19:08;;;;;;;0.00;0.00;;;2.90;99.90;;;;;;5082516;28;20047;-77
2022/09/22 04:21:34;;;;;;;0.00;0.00;;;2.90;99.90;;;;;;5083455;28;20040;-76
2022/09/22 04:24:00;;;;;;;0.00;0.00;;;2.80;99.90;;;;;;5083182;28;20041;-77
2022/09/22 04:26:25;;;;;;;0.00;0.00;;;2.70;99.90;;;;;;5065770;28;20024;-77
2022/09/22 04:28:51;;;;;;;0.00;0.00;;;2.70;99.90;;;;;;5082225;28;20047;-78
2022/09/22 04:31:18;;;;;;;0.00;0.00;;;2.80;99.90;;;;;;5066093;28;20104;-77
2022/09/22 04:33:44;;;;;;;0.00;0.00;;;2.80;99.90;;;;;;5082844;28;20059;-76
2022/09/22 04:36:09;;;;;;;0.00;0.00;;;3.00;99.90;;;;;;5083366;28;20052;-76
2022/09/22 04:38:35;;;;;;;0.90;0.85;;;2.70;99.90;;;;;;5082509;28;20040;-78
2022/09/22 04:41:01;;;;;;;0.30;0.30;;;2.70;99.90;;;;;;5083193;28;20032;-77
2022/09/22 04:43:27;;;;;;;0.10;0.10;;;2.60;99.90;;;;;;5082754;28;20142;-78
2022/09/22 04:45:52;;;;;;;0.38;0.38;;;2.70;99.90;;;;;;5083996;28;20120;-78
2022/09/22 04:48:18;;;;;;;0.00;0.00;;;2.70;99.90;;;;;;5082662;28;20087;-78
2022/09/22 04:50:44;;;;;;;0.00;0.00;;;2.70;99.90;;;;;;5083270;28;20048;-77
2022/09/22 04:53:11;;;;;;;0.00;0.00;;;2.70;99.90;;;;;;5065662;28;20045;-76
2022/09/22 04:55:37;;;;;;;0.00;0.00;;;2.60;99.90;;;;;;5083165;28;20087;-77
2022/09/22 04:58:03;;;;;;;0.00;0.00;;;2.60;99.90;;;;;;5082490;28;20056;-75
2022/09/22 05:00:29;;;;;;;0.00;0.00;;;2.60;99.90;;;;;;5082059;28;20048;-77
2022/09/22 05:02:56;;;;;;;0.00;0.00;;;2.50;99.90;;;;;;5064768;28;20082;-77
2022/09/22 05:05:24;;;;;;;0.00;0.00;;;2.50;99.90;;;;;;5081398;28;20062;-78
2022/09/22 05:07:53;;;;;;;0.00;0.00;;;2.50;99.90;;;;;;5081115;28;20028;-77
2022/09/22 05:10:21;;;;;;;0.00;0.00;;;2.50;99.90;;;;;;5082703;28;20046;-77
2022/09/22 05:12:47;;;;;;;0.00;0.00;;;2.50;99.90;;;;;;5064796;28;20106;-78
2022/09/22 05:15:14;;;;;;;0.00;0.00;;;2.50;99.90;;;;;;5081291;28;20036;-76
2022/09/22 05:17:47;;;;;;;0.00;0.00;;;2.50;99.90;;;;;;5080504;28;20039;-77
2022/09/22 05:20:13;;;;;;;0.00;0.00;;;2.40;99.90;;;;;;5081893;28;20033;-78
2022/09/22 05:22:40;;;;;;;0.00;0.00;;;2.50;99.90;;;;;;5081459;28;20044;-77
2022/09/22 05:25:09;;;;;;;0.00;0.00;;;2.50;99.90;;;;;;5063603;28;20059;-76
2022/09/22 05:27:36;;;;;;;0.00;0.00;;;2.40;99.90;;;;;;5071681;28;20044;-76
2022/09/22 05:30:04;;;;;;;0.00;0.00;;;2.50;99.90;;;;;;5081100;28;20100;-77
2022/09/22 05:32:29;;;;;;;0.00;0.00;;;2.50;99.90;;;;;;5084520;28;20044;-76
2022/09/22 05:34:55;;;;;;;0.00;0.00;;;2.50;99.90;;;;;;5068804;28;20071;-77
2022/09/22 05:37:21;;;;;;;0.00;0.00;;;2.60;99.90;;;;;;5087738;28;20047;-77
2022/09/22 05:39:46;;;;;;;0.00;0.00;;;3.40;99.90;;;;;;5086813;28;20040;-78
2022/09/22 05:42:12;;;;;;;1.15;0.80;;;2.60;99.90;;;;;;5086944;28;20056;-77
2022/09/22 05:44:37;;;;;;;0.00;0.00;;;2.60;99.90;;;;;;5087899;28;20040;-77
2022/09/22 05:47:03;;;;;;;0.00;0.00;;;2.70;99.90;;;;;;5087615;28;20031;-77
2022/09/22 05:49:29;;;;;;;0.05;0.05;;;2.80;99.90;;;;;;5086731;28;20055;-77
2022/09/22 05:51:56;;;;;;;0.00;0.00;;;2.80;99.90;;;;;;5087816;28;20092;-77
2022/09/22 05:54:23;;;;;;;0.03;0.03;;;2.90;99.90;;;;;;5086663;28;20032;-77
2022/09/22 05:56:49;;;;;;;0.22;0.22;;;3.00;99.90;;;;;;5086559;28;20049;-77
2022/09/22 05:59:14;;;;;;;0.00;0.00;;;3.00;99.90;;;;;;5068922;28;20053;-77
2022/09/22 06:01:40;;;;;;;0.00;0.00;;;3.00;99.90;;;;;;5087674;28;20120;-76
2022/09/22 06:04:05;;;;;;;0.08;0.08;;;3.10;99.90;;;;;;5088785;28;20044;-76
2022/09/22 06:06:31;;;;;;;0.00;0.00;;;3.20;99.90;;;;;;5089892;28;20040;-77
2022/09/22 06:08:57;;;;;;;0.00;0.00;;;3.30;99.90;;;;;;5088967;28;20047;-76
2022/09/22 06:11:23;;;;;;;0.00;0.00;;;3.40;99.90;;;;;;5088904;28;20036;-76
2022/09/22 06:13:49;;;;;;;0.00;0.00;;;3.40;99.90;;;;;;5088172;28;20040;-77
2022/09/22 06:16:16;;;;;;;0.00;0.00;;;3.50;99.90;;;;;;5088370;28;20041;-78
2022/09/22 06:18:46;;;;;;;0.00;0.00;;;3.60;99.90;;;;;;5088084;28;20093;-78
2022/09/22 06:21:18;;;;;;;0.03;0.03;;;3.80;99.90;;;;;;5086709;28;20054;-77
2022/09/22 06:23:43;;;;;;;0.00;0.00;;;4.00;99.90;;;;;;5086675;28;20098;-75
2022/09/22 06:26:09;;;;;;;0.00;0.00;;;4.10;99.90;;;;;;5086598;28;20270;-77
2022/09/22 06:28:35;;;;;;;0.00;0.00;;;4.30;99.90;;;;;;5086576;28;20058;-78
2022/09/22 06:31:00;;;;;;;0.03;0.03;;;4.40;99.90;;;;;;5086246;28;20044;-78
2022/09/22 06:33:27;;;;;;;0.00;0.00;;;4.60;99.90;;;;;;5086181;28;20044;-77
2022/09/22 06:35:53;;;;;;;0.00;0.00;;;4.70;99.90;;;;;;5086614;28;20049;-77
2022/09/22 06:38:19;;;;;;;0.00;0.00;;;4.80;99.90;;;;;;5087302;28;20037;-74
2022/09/22 06:40:45;;;;;;;0.20;0.20;;;4.90;99.90;;;;;;5086544;28;20036;-76
2022/09/22 06:43:21;;;;;;;0.00;0.00;;;5.10;99.90;;;;;;5085975;28;20043;-78
2022/09/22 06:45:51;;;;;;;0.00;0.00;;;5.20;99.90;;;;;;5085876;28;20048;-77
2022/09/22 06:48:20;;;;;;;0.00;0.00;;;5.30;99.90;;;;;;5086032;28;20072;-77
2022/09/22 06:50:50;;;;;;;0.35;0.35;;;5.50;99.90;;;;;;5085808;28;20052;-76
2022/09/22 06:53:18;;;;;;;0.05;0.05;;;5.60;99.90;;;;;;5086109;28;20075;-77
2022/09/22 06:55:44;;;;;;;0.00;0.00;;;5.80;99.90;;;;;;5086068;28;20041;-77
2022/09/22 06:58:11;;;;;;;0.35;0.35;;;5.90;99.90;;;;;;5085898;28;20060;-76
2022/09/22 07:00:37;;;;;;;0.00;0.00;;;6.00;99.90;;;;;;5085497;28;20052;-77
2022/09/22 07:03:19;;;;;;;0.00;0.00;;;6.20;99.90;;;;;;5087189;28;20620;-78
2022/09/22 07:05:57;;;;;;;0.65;0.65;;;6.30;99.90;;;;;;5086421;28;20100;-77
2022/09/22 07:08:23;;;;;;;0.00;0.00;;;6.80;99.90;;;;;;5086868;28;20049;-78
2022/09/22 07:11:02;;;;;;;0.28;0.28;;;6.60;99.90;;;;;;5086970;28;20503;-77
2022/09/22 07:13:30;;;;;;;0.38;0.35;;;6.70;99.90;;;;;;5085976;28;20052;-78
2022/09/22 07:16:06;;;;;;;0.00;0.00;;;6.90;99.90;;;;;;5086352;28;20055;-77
2022/09/22 07:18:34;;;;;;;;;;;7.00;99.90;;;;;;5052423;28;20045;-77
2022/09/22 07:21:02;;;;;;;0.00;0.00;;;7.10;99.90;;;;;;5085561;28;20004;-77
2022/09/22 07:23:28;;;;;;;2.85;0.65;;;7.20;99.90;;;;;;5085962;28;20033;-77
2022/09/22 07:25:55;;;;;;;0.82;0.82;;;7.30;99.90;;;;;;5086063;28;20041;-77
2022/09/22 07:28:27;;;;;;;0.00;0.00;;;7.40;99.90;;;;;;5085864;28;20228;-76
2022/09/22 07:30:56;;;;;;;0.10;0.10;;;7.50;99.90;;;;;;5084751;28;20100;-77
2022/09/22 07:33:23;;;;;;;2.70;0.30;;;7.70;99.90;;;;;;5086809;28;20158;-77
2022/09/22 07:36:01;;;;;;;0.30;0.25;;;7.80;99.90;;;;;;5088047;28;20033;-78
2022/09/22 07:38:35;;;;;;;0.60;0.40;;;7.90;99.90;;;;;;5090289;28;20125;-77
2022/09/22 07:41:02;;;;;;;1.20;0.65;;;8.10;99.90;;;;;;5088987;28;20033;-78
2022/09/22 07:43:29;;;;;;;1.17;0.57;;;8.30;99.90;;;;;;5089058;28;20080;-79
2022/09/22 07:45:56;;;;;;;1.30;0.63;;;8.50;99.90;;;;;;5089340;28;20043;-78
2022/09/22 07:51:23;;;;;;;0.35;0.32;;;8.60;99.90;;;;;;5024583;28;20485;-79
2022/09/22 07:54:01;;;;;;;1.25;1.15;;;8.70;99.90;;;;;;5067833;28;20138;-78
2022/09/22 07:56:27;;;;;;;0.20;0.10;;;8.90;99.90;;;;;;5068126;28;20052;-78
2022/09/22 07:58:54;;;;;;;0.55;0.55;;;9.00;99.90;;;;;;5068657;28;20525;-79
2022/09/22 08:01:25;;;;;;;2.28;0.88;;;9.10;99.90;;;;;;5069118;28;20051;-79
2022/09/22 08:03:51;;;;;;;0.40;0.38;;;9.50;99.90;;;;;;5069029;28;20040;-79
2022/09/22 08:06:18;;;;;;;0.65;0.28;;;9.50;99.90;;;;;;5069012;28;20040;-79
2022/09/22 08:08:52;;;;;;;0.20;0.20;;;9.60;99.90;;;;;;5051585;28;20028;-79
2022/09/22 08:11:20;;;;;;;0.75;0.50;;;9.60;99.90;;;;;;5067990;28;20029;-77
2022/09/22 08:13:52;;;;;;;0.77;0.50;;;9.80;99.90;;;;;;5069186;28;20056;-80
2022/09/22 08:16:18;;;;;;;0.55;0.38;;;9.90;99.90;;;;;;5068226;28;20032;-79
2022/09/22 08:18:51;;;;;;;1.08;0.98;;;10.00;99.90;;;;;;5068263;28;20039;-79
2022/09/22 08:21:18;;;;;;;0.35;0.35;;;10.20;99.90;;;;;;5068493;28;20060;-79
2022/09/22 08:23:44;;;;;;;0.98;0.45;;;10.30;99.90;;;;;;5068139;28;20144;-79
2022/09/22 08:26:09;;;;;;;0.65;0.55;;;10.40;99.90;;;;;;5068372;28;20029;-79
2022/09/22 08:28:35;;;;;;;0.32;0.32;;;10.50;99.90;;;;;;5068276;28;20039;-79
2022/09/22 08:31:01;;;;;;;0.93;0.57;;;10.60;99.90;;;;;;5066587;28;20053;-78
2022/09/22 08:33:30;;;;;;;0.75;0.75;;;10.70;99.90;;;;;;5063821;28;20052;-79
2022/09/22 08:35:58;;;;;;;0.22;0.20;;;10.80;99.90;;;;;;5068035;28;20021;-79
2022/09/22 08:38:26;;;;;;;5.93;1.25;;;10.40;99.90;;;;;;5067396;28;20041;-78
2022/09/22 08:41:38;;;;;;;0.65;0.65;;;11.00;99.90;;;;;;5063271;28;20037;-78
2022/09/22 08:44:11;;;;;;;0.65;0.47;;;11.20;99.90;;;;;;5067800;28;20029;-78
2022/09/22 08:46:42;;;;;;;0.38;0.38;;;11.30;99.90;;;;;;5066535;28;20033;-79
2022/09/22 08:52:42;;;;;;;0.10;0.10;;;11.70;99.90;;;;;;5067826;28;20033;-79
2022/09/22 08:55:19;;;;;;;1.48;0.45;;;12.40;99.90;;;;;;5067137;28;20044;-79
2022/09/22 08:57:58;;;;;;;3.78;0.68;;;13.40;90.00;;;;;;5066940;28;20048;-80
2022/09/22 09:00:28;;;;;;;0.40;0.30;;;14.20;1.00;;;;;;5065995;28;20096;-80
2022/09/22 09:03:19;;;;;;;1.58;1.17;;;14.80;1.00;;;;;;5067411;28;20033;-77
2022/09/22 09:06:00;;;;;;;0.15;0.10;;;15.40;1.00;;;;;;5068202;28;20051;-79
2022/09/22 09:08:51;;;;;;;1.15;0.85;;;15.80;99.90;;;;;;5067926;28;20041;-79
2022/09/22 09:11:40;;;;;;;1.77;0.40;;;16.40;1.00;;;;;;5068244;28;20028;-78
2022/09/22 09:14:18;;;;;;;0.40;0.40;;;16.70;24.90;;;;;;5050639;28;20053;-79
2022/09/22 09:17:02;;;;;;;1.08;0.68;;;17.20;9.90;;;;;;5065879;28;20029;-78
2022/09/22 09:19:42;;;;;;;1.52;0.65;;;17.60;99.90;;;;;;5066726;28;20041;-78
2022/09/22 09:22:25;;;;;;;0.88;0.45;;;17.90;99.90;;;;;;5059290;28;20032;-76
2022/09/22 09:25:22;;;;;;;0.15;0.15;;;18.20;99.90;;;;;;5066956;28;20036;-80
2022/09/22 09:27:59;;;;;;;0.10;0.10;;;18.20;31.70;;;;;;5056731;28;20047;-80
2022/09/22 09:30:25;;;;;;;0.30;0.30;;;17.90;1.00;;;;;;5067483;28;20325;-80
2022/09/22 09:33:03;;;;;;;0.52;0.47;;;18.10;1.00;;;;;;5067337;28;20032;-80
2022/09/22 09:35:46;;;;;;;0.10;0.10;;;18.20;1.00;;;;;;5067368;28;20025;-80
2022/09/22 09:38:18;;;;;;;2.38;0.65;;;18.30;1.00;;;;;;5068163;28;20104;-81
2022/09/22 09:40:53;;;;;;;0.10;0.10;;;18.20;1.00;;;;;;5065782;28;20028;-80
2022/09/22 09:43:22;;;;;;;5.00;1.30;;;18.20;1.00;;;;;;5067080;28;20052;-79
2022/09/22 09:46:25;;;;;;;0.20;0.20;;;18.30;99.90;;;;;;5067940;28;20275;-78
2022/09/22 09:49:09;;;;;;;0.00;0.00;;;18.20;99.90;;;;;;5066497;28;20045;-80
2022/09/22 09:51:37;;;;;;;1.55;0.63;;;18.30;99.90;;;;;;5064544;28;20100;-79
2022/09/22 09:54:06;;;;;;;0.10;0.10;;;18.50;99.90;;;;;;5067328;28;20037;-80
2022/09/22 09:56:35;;;;;;;0.20;0.20;;;18.30;99.90;;;;;;5065082;28;20067;-80
2022/09/22 10:01:52;;;;;;;0.00;0.00;;;18.40;99.90;;;;;;5066657;28;20037;-80
2022/09/22 10:04:34;;;;;;;2.90;0.60;;;18.50;99.90;;;;;;5065669;28;20053;-79
2022/09/22 10:07:15;;;;;;;0.45;0.32;;;18.70;99.90;;;;;;5066304;28;20033;-78
2022/09/22 10:09:41;;;;;;;0.22;0.20;;;18.80;99.90;;;;;;5066489;28;20025;-79
2022/09/22 10:12:39;;;;;;;0.20;0.10;;;18.80;99.90;;;;;;5067769;28;20132;-80
2022/09/22 10:15:24;;;;;;;0.00;0.00;;;19.50;99.90;;;;;;5021533;28;20061;-79
2022/09/22 10:17:50;;;;;;;0.13;0.13;;;19.20;99.90;;;;;;5064079;28;20083;-78
2022/09/22 10:20:15;;;;;;;0.95;0.52;;;19.40;99.90;;;;;;5069881;28;20041;-79
2022/09/22 10:22:42;;;;;;;0.22;0.22;;;19.40;99.90;;;;;;5065807;28;20043;-78
2022/09/22 10:25:18;;;;;;;0.40;0.38;;;19.60;99.90;;;;;;5068680;28;20041;-79
2022/09/22 10:27:58;;;;;;;0.38;0.20;;;19.80;99.90;;;;;;5054080;28;20037;-80
2022/09/22 10:30:24;;;;;;;0.10;0.10;;;19.60;99.90;;;;;;5036588;28;20372;-80
2022/09/22 10:33:16;;;;;;;0.40;0.32;;;19.70;99.90;;;;;;5069965;28;20029;-80
2022/09/22 10:35:45;;;;;;;2.50;0.47;;;19.60;99.90;;;;;;5059686;28;20060;-77
2022/09/22 10:38:20;;;;;;;0.17;0.15;;;19.80;99.90;;;;;;5066582;28;20052;-79
2022/09/22 10:41:01;;;;;;;0.47;0.32;;;20.40;99.90;;;;;;5067884;28;20045;-78
2022/09/22 10:43:55;;;;;;;0.10;0.10;;;20.40;99.90;;;;;;5066733;28;20069;-79
2022/09/22 10:46:51;;;;;;;0.10;0.10;;;20.50;99.90;;;;;;5067564;28;20106;-78
2022/09/22 10:49:53;;;;;;;0.43;0.28;;;20.70;99.90;;;;;;5069515;28;20029;-80
2022/09/22 10:52:47;;;;;;;0.38;0.35;;;21.00;99.90;;;;;;5081973;28;20039;-78
2022/09/22 10:55:34;;;;;;;0.10;0.10;;;21.20;99.90;;;;;;5084805;28;20047;-78
2022/09/22 10:58:03;;;;;;;0.68;0.50;;;21.00;99.90;;;;;;5085218;28;20028;-80
2022/09/22 11:00:40;;;;;;;3.17;1.95;;;21.20;99.90;;;;;;5084065;28;20041;-79
2022/09/22 11:03:26;;;;;;;0.40;0.40;;;21.50;99.90;;;;;;5084547;28;20071;-79
2022/09/22 11:12:29;;;;;;;0.20;0.20;;;20.70;99.90;;;;;;5085208;28;20039;-79
2022/09/22 11:15:15;;;;;;;0.20;0.20;;;20.70;99.90;;;;;;5081915;28;20068;-78
2022/09/22 11:18:06;;;;;;;0.73;0.65;;;21.10;99.90;;;;;;5083642;28;20064;-78
2022/09/22 11:20:44;;;;;;;0.45;0.40;;;21.20;99.90;;;;;;5081043;28;20105;-78
2022/09/22 11:23:20;;;;;;;1.73;1.13;;;21.10;99.90;;;;;;5082017;28;20405;-76
2022/09/22 11:25:50;;;;;;;;;;;21.00;99.90;;;;;;5084461;28;20056;-79
2022/09/22 11:28:28;;;;;;;0.30;0.25;;;20.60;99.90;;;;;;5082816;28;20162;-79
2022/09/22 11:30:57;;;;;;;0.10;0.10;;;20.60;99.90;;;;;;5084197;28;20055;-78
2022/09/22 11:33:51;;;;;;;0.20;0.20;;;20.40;99.90;;;;;;5064213;28;20108;-78
2022/09/22 11:36:22;;;;;;;0.75;0.50;;;20.00;99.90;;;;;;5078636;28;20049;-78
2022/09/22 11:39:09;;;;;;;0.65;0.50;;;19.80;99.90;;;;;;5078970;28;20055;-79
2022/09/22 11:41:46;;;;;;;0.10;0.10;;;19.90;99.90;;;;;;5078961;28;20498;-79
2022/09/22 11:44:38;;;;;;;0.28;0.28;;;20.60;99.90;;;;;;5082022;28;20037;-79
2022/09/22 11:47:11;;;;;;;0.28;0.17;;;21.20;99.90;;;;;;5083912;28;20025;-78
2022/09/22 11:49:56;;;;;;;2.85;0.52;;;21.70;99.90;;;;;;5082396;28;20105;-79
2022/09/22 11:52:32;;;;;;;1.20;0.38;;;21.40;99.90;;;;;;5082152;28;20052;-79
2022/09/22 11:55:12;;;;;;;0.35;0.28;;;20.90;99.90;;;;;;5078320;28;20075;-78
2022/09/22 11:57:43;;;;;;;0.52;0.47;;;20.50;99.90;;;;;;5082645;28;20095;-79
2022/09/22 12:00:16;;;;;;;0.30;0.25;;;20.30;99.90;;;;;;5082771;28;20047;-77
2022/09/22 12:02:53;;;;;;;1.75;0.82;;;20.80;99.90;;;;;;5080330;28;20079;-78
2022/09/22 12:05:42;;;;;;;2.22;0.93;;;21.60;99.90;;;;;;5078794;28;20033;-77
2022/09/22 12:08:15;;;;;;;0.17;0.17;;;22.40;99.90;;;;;;5080585;28;20462;-79
2022/09/22 12:10:46;;;;;;;0.03;0.03;;;22.90;99.90;;;;;;5078994;28;20048;-80
2022/09/22 12:13:22;;;;;;;1.35;0.43;;;23.00;99.90;;;;;;5079200;28;20044;-79
2022/09/22 12:16:05;;;;;;;0.20;0.20;;;23.00;99.90;;;;;;5081936;28;20533;-78
2022/09/22 12:18:45;;;;;;;0.45;0.20;;;22.60;99.90;;;;;;5079487;28;20040;-79
2022/09/22 12:21:25;;;;;;;0.20;0.20;;;22.60;99.90;;;;;;5078013;28;20036;-79
2022/09/22 12:23:51;;;;;;;0.32;0.25;;;22.70;99.90;;;;;;5078623;28;20037;-79
2022/09/22 12:26:32;;;;;;;0.55;0.32;;;21.90;99.90;;;;;;5076967;28;20045;-79
2022/09/22 12:29:06;;;;;;;0.00;0.00;;;21.40;99.90;;;;;;5079041;28;20034;-79
2022/09/22 12:31:37;;;;;;;0.00;0.00;;;20.60;99.90;;;;;;5077597;28;20374;-77
2022/09/22 12:34:14;;;;;;;1.55;0.75;;;19.80;99.90;;;;;;5080895;28;20078;-79
2022/09/22 12:36:40;;;;;;;0.47;0.43;;;19.70;99.90;;;;;;5080717;28;20092;-79
2022/09/22 12:39:18;;;;;;;0.32;0.25;;;20.30;99.90;;;;;;5081539;28;20029;-79
2022/09/22 12:41:47;;;;;;;0.40;0.40;;;20.20;99.90;;;;;;5082805;28;20048;-79
2022/09/22 12:44:17;;;;;;;0.10;0.10;;;20.90;99.90;;;;;;5078165;28;20048;-79
2022/09/22 12:46:43;;;;;;;7.97;0.52;;;21.70;99.90;;;;;;5080075;28;20052;-77
2022/09/22 12:49:14;;;;;;;1.65;0.85;;;22.80;99.90;;;;;;5079880;28;20074;-78
2022/09/22 12:51:40;;;;;;;0.43;0.43;;;23.20;99.90;;;;;;5079915;28;20032;-79
2022/09/22 12:54:21;;;;;;;0.82;0.57;;;22.90;99.90;;;;;;5084524;28;20071;-79
2022/09/22 12:56:56;;;;;;;1.35;0.75;;;22.20;99.90;;;;;;5084637;28;20068;-80
2022/09/22 12:59:36;;;;;;;7.38;1.25;;;21.80;99.90;;;;;;5084357;28;20054;-78
2022/09/22 13:02:14;;;;;;;0.10;0.10;;;21.20;99.90;;;;;;5082653;28;20036;-79
2022/09/22 13:04:58;;;;;;;0.10;0.10;;;21.20;99.90;;;;;;5084667;28;20069;-79
2022/09/22 13:07:38;;;;;;;1.23;0.47;;;21.90;99.90;;;;;;5088084;28;20327;-80
2022/09/22 13:10:22;;;;;;;0.47;0.40;;;22.60;99.90;;;;;;5088214;28;20060;-80
2022/09/22 13:13:08;;;;;;;2.38;0.88;;;23.50;99.90;;;;;;5085206;28;20459;-80
2022/09/22 13:15:48;;;;;;;2.80;0.30;;;24.20;99.90;;;;;;5083276;28;20063;-79
2022/09/22 13:18:36;;;;;;;0.73;0.40;;;24.50;99.90;;;;;;5083426;28;20115;-77
2022/09/22 13:21:13;;;;;;;1.30;0.57;;;24.70;99.90;;;;;;5080454;28;20052;-80
2022/09/22 13:23:56;;;;;;;0.08;0.08;;;23.90;99.90;;;;;;5081868;28;20048;-78
2022/09/22 13:26:21;;;;;;;0.38;0.28;;;23.20;99.90;;;;;;5082116;28;20061;-80
2022/09/22 13:29:09;;;;;;;1.08;0.88;;;22.50;99.90;;;;;;5082387;28;20068;-79
2022/09/22 13:31:37;;;;;;;13.18;0.80;;;21.50;99.90;;;;;;5083553;28;20033;-81
2022/09/22 13:34:18;;;;;;;0.75;0.75;;;21.10;99.90;;;;;;5083091;28;20550;-77
2022/09/22 13:36:45;;;;;;;0.20;0.20;;;20.90;99.90;;;;;;5076486;28;20053;-79
2022/09/22 13:39:16;;;;;;;0.32;0.28;;;21.40;99.90;;;;;;5076998;28;20138;-78